Time;durP1;ratioP1;P1;durP2;ratioP2;P2;SDS_P1;SDS_P2;PMS_P1;PMS_P2;Temp;Humidity;BMP_temperature;BMP_pressure;BME280_temperature;BME280_humidity;BME280_pressure;Samples;Min_cycle;Max_cycle;Signal;HPM_P1;HPM_P2
2021/07/07 00:00:16;;;;;;;12.80;12.00;;;16.90;99.90;;;;;;4968084;28;20190;-81
2021/07/07 00:02:43;;;;;;;12.57;11.77;;;16.90;99.90;;;;;;4967427;28;20194;-81
2021/07/07 00:05:12;;;;;;;12.53;11.73;;;16.90;99.90;;;;;;4965869;28;20232;-81
2021/07/07 00:07:41;;;;;;;12.90;12.00;;;16.90;99.90;;;;;;4969440;28;20202;-80
2021/07/07 00:10:10;;;;;;;13.20;12.20;;;16.90;99.90;;;;;;4964766;28;20207;-81
2021/07/07 00:12:37;;;;;;;13.17;12.20;;;16.90;99.90;;;;;;4980318;28;20202;-80
2021/07/07 00:15:06;;;;;;;13.40;12.50;;;16.90;99.90;;;;;;4960966;28;20224;-81
2021/07/07 00:17:33;;;;;;;13.57;12.63;;;16.80;99.90;;;;;;4966728;28;20277;-81
2021/07/07 00:20:00;;;;;;;13.47;12.67;;;16.80;99.90;;;;;;4963885;28;20694;-81
2021/07/07 00:22:27;;;;;;;14.10;13.10;;;16.90;99.90;;;;;;4961212;28;20199;-81
2021/07/07 00:24:55;;;;;;;13.80;13.00;;;16.90;99.90;;;;;;4959731;28;20573;-81
2021/07/07 00:27:23;;;;;;;12.77;11.93;;;16.90;99.90;;;;;;4964746;28;20196;-81
2021/07/07 00:29:51;;;;;;;13.57;12.67;;;17.00;99.90;;;;;;4965838;28;20571;-81
2021/07/07 00:32:18;;;;;;;13.67;12.77;;;16.90;99.90;;;;;;4961936;28;20608;-81
2021/07/07 00:34:46;;;;;;;13.27;12.43;;;17.00;99.90;;;;;;4967869;28;20216;-80
2021/07/07 00:37:13;;;;;;;13.10;12.30;;;17.00;99.90;;;;;;4965642;28;20668;-81
2021/07/07 00:39:41;;;;;;;13.60;12.60;;;17.00;99.90;;;;;;4964151;28;20195;-80
2021/07/07 00:42:09;;;;;;;13.37;12.57;;;17.00;99.90;;;;;;4960724;28;20295;-81
2021/07/07 00:44:38;;;;;;;13.57;12.77;;;17.00;99.90;;;;;;4959212;28;20217;-81
2021/07/07 00:47:05;;;;;;;13.90;12.90;;;16.90;99.90;;;;;;4966865;28;20209;-80
2021/07/07 00:49:32;;;;;;;13.70;12.80;;;17.00;99.90;;;;;;4962443;28;20198;-80
2021/07/07 00:51:59;;;;;;;13.83;12.83;;;17.00;99.90;;;;;;4956724;28;20199;-80
2021/07/07 00:54:27;;;;;;;13.63;12.83;;;17.00;99.90;;;;;;4966504;28;20201;-80
2021/07/07 00:56:54;;;;;;;13.13;12.33;;;16.90;99.90;;;;;;4963971;28;20191;-80
2021/07/07 00:59:23;;;;;;;13.20;12.40;;;16.90;99.90;;;;;;4978413;28;20616;-81
2021/07/07 01:01:50;;;;;;;14.33;13.10;;;16.90;99.90;;;;;;4964832;28;20216;-81
2021/07/07 01:04:17;;;;;;;13.53;12.63;;;16.90;99.90;;;;;;4966424;28;20206;-81
2021/07/07 01:06:44;;;;;;;13.67;12.67;;;16.90;99.90;;;;;;4965701;28;20645;-80
2021/07/07 01:09:11;;;;;;;13.07;12.17;;;16.90;99.90;;;;;;4967800;28;20199;-81
2021/07/07 01:11:38;;;;;;;13.33;12.40;;;17.00;99.90;;;;;;4959789;28;20201;-81
2021/07/07 01:14:05;;;;;;;13.40;12.50;;;17.00;99.90;;;;;;4966001;28;20189;-81
2021/07/07 01:16:33;;;;;;;13.00;12.20;;;16.90;99.90;;;;;;4958626;28;20684;-80
2021/07/07 01:19:00;;;;;;;13.10;12.30;;;16.90;99.90;;;;;;4964569;28;20560;-80
2021/07/07 01:21:27;;;;;;;13.20;12.40;;;16.90;99.90;;;;;;4965980;28;20203;-80
2021/07/07 01:23:55;;;;;;;14.13;13.20;;;16.90;99.90;;;;;;4959013;28;20215;-80
2021/07/07 01:26:22;;;;;;;14.37;13.30;;;16.90;99.90;;;;;;4965594;28;20617;-81
2021/07/07 01:28:49;;;;;;;14.23;13.23;;;16.90;99.90;;;;;;4955616;28;20692;-80
2021/07/07 01:31:15;;;;;;;13.50;12.60;;;16.90;99.90;;;;;;4959289;28;20194;-81
2021/07/07 01:33:43;;;;;;;14.10;13.20;;;16.90;99.90;;;;;;4962854;28;20201;-80
2021/07/07 01:36:11;;;;;;;14.43;13.43;;;16.90;99.90;;;;;;4960225;28;20249;-80
2021/07/07 01:38:38;;;;;;;14.03;13.10;;;16.90;99.90;;;;;;4952379;28;20209;-80
2021/07/07 01:41:06;;;;;;;13.43;12.60;;;16.90;99.90;;;;;;4965233;28;20199;-80
2021/07/07 01:43:33;;;;;;;13.97;13.07;;;16.90;99.90;;;;;;4964522;28;20201;-81
2021/07/07 01:46:00;;;;;;;13.60;12.70;;;16.90;99.90;;;;;;4959591;28;20233;-80
2021/07/07 01:48:26;;;;;;;15.13;14.03;;;16.90;99.90;;;;;;4962183;28;20564;-80
2021/07/07 01:50:53;;;;;;;15.20;14.20;;;16.80;99.90;;;;;;4956678;28;20555;-80
2021/07/07 01:53:20;;;;;;;14.80;13.90;;;16.80;99.90;;;;;;4963733;28;20202;-79
2021/07/07 01:55:47;;;;;;;14.13;13.33;;;16.80;99.90;;;;;;4955747;28;20598;-80
2021/07/07 01:58:15;;;;;;;15.50;14.50;;;16.90;99.90;;;;;;4960994;28;20199;-81
2021/07/07 02:00:42;;;;;;;14.77;13.87;;;17.00;99.90;;;;;;4953791;28;20201;-81
2021/07/07 02:03:09;;;;;;;15.20;14.10;;;17.00;99.90;;;;;;4967245;28;20201;-79
2021/07/07 02:05:38;;;;;;;15.43;14.27;;;16.90;99.90;;;;;;4961648;28;20760;-79
2021/07/07 02:08:07;;;;;;;15.17;14.23;;;17.00;99.90;;;;;;4964268;28;20206;-80
2021/07/07 02:10:35;;;;;;;16.50;15.50;;;17.10;99.90;;;;;;4956632;28;20197;-81
2021/07/07 02:13:04;;;;;;;15.30;14.30;;;17.10;99.90;;;;;;4965178;28;20195;-80
2021/07/07 02:15:34;;;;;;;15.43;14.33;;;17.10;99.90;;;;;;4953556;28;20220;-80
2021/07/07 02:18:02;;;;;;;14.87;13.97;;;17.10;99.90;;;;;;4965677;28;20577;-80
2021/07/07 02:20:31;;;;;;;15.13;14.13;;;17.00;99.90;;;;;;4958266;28;20191;-81
2021/07/07 02:22:58;;;;;;;16.33;15.03;;;17.00;99.90;;;;;;4950206;28;20200;-81
2021/07/07 02:25:28;;;;;;;15.17;14.17;;;17.00;99.90;;;;;;4962704;28;20227;-81
2021/07/07 02:27:56;;;;;;;14.50;13.60;;;17.00;99.90;;;;;;4960783;28;20200;-80
2021/07/07 02:30:26;;;;;;;15.70;14.60;;;17.00;99.90;;;;;;4962039;28;20202;-81
2021/07/07 02:32:56;;;;;;;15.70;14.60;;;17.00;99.90;;;;;;4960925;28;20201;-78
2021/07/07 02:35:26;;;;;;;16.20;15.00;;;17.00;99.90;;;;;;4959657;28;20274;-80
2021/07/07 02:37:54;;;;;;;14.47;13.57;;;17.00;99.90;;;;;;4949418;28;20191;-79
2021/07/07 02:40:24;;;;;;;15.07;14.17;;;17.00;99.90;;;;;;4968727;28;20212;-80
2021/07/07 02:42:58;;;;;;;14.50;13.60;;;17.10;99.90;;;;;;4976288;28;20203;-79
2021/07/07 03:12:45;;;;;;;16.20;15.00;;;17.10;99.90;;;;;;5402610;23;20839;-78
2021/07/07 03:15:13;;;;;;;16.03;15.03;;;17.10;99.90;;;;;;4923232;29;20578;-79
2021/07/07 03:17:40;;;;;;;16.50;15.50;;;17.00;99.90;;;;;;4931563;29;20209;-79
2021/07/07 03:20:08;;;;;;;16.10;14.93;;;17.00;99.90;;;;;;4924226;29;20193;-78
2021/07/07 03:22:35;;;;;;;15.43;14.53;;;17.00;99.90;;;;;;4937046;29;20291;-80
2021/07/07 03:25:02;;;;;;;15.63;14.73;;;17.00;99.90;;;;;;4935928;29;20311;-80
2021/07/07 03:27:29;;;;;;;15.83;14.83;;;16.90;99.90;;;;;;4939697;29;20196;-81
2021/07/07 03:29:57;;;;;;;15.70;14.70;;;16.90;99.90;;;;;;4928725;29;20210;-80
2021/07/07 03:32:24;;;;;;;17.27;16.27;;;16.90;99.90;;;;;;4952706;29;20286;-80
2021/07/07 03:34:51;;;;;;;16.40;15.40;;;16.80;99.90;;;;;;4936778;29;20227;-80
2021/07/07 03:37:18;;;;;;;15.30;14.40;;;16.80;99.90;;;;;;4937783;29;20192;-81
2021/07/07 03:39:44;;;;;;;16.43;15.33;;;16.90;99.90;;;;;;4938148;29;20191;-80
2021/07/07 03:42:11;;;;;;;15.97;14.97;;;16.90;99.90;;;;;;4936814;29;20694;-80
2021/07/07 03:44:38;;;;;;;16.00;15.00;;;17.00;99.90;;;;;;4936652;29;20235;-81
2021/07/07 03:47:06;;;;;;;15.43;14.47;;;17.00;99.90;;;;;;4936276;29;20198;-80
2021/07/07 03:49:33;;;;;;;16.37;15.27;;;17.00;99.90;;;;;;4936662;29;20194;-81
2021/07/07 03:52:00;;;;;;;16.33;15.33;;;16.90;99.90;;;;;;4928127;29;20201;-81
2021/07/07 03:54:27;;;;;;;15.70;14.70;;;16.90;99.90;;;;;;4924720;29;20253;-81
2021/07/07 03:56:55;;;;;;;18.33;16.93;;;16.90;99.90;;;;;;4935929;29;20201;-80
2021/07/07 03:59:22;;;;;;;16.40;15.30;;;16.90;99.90;;;;;;4949972;28;20210;-80
2021/07/07 04:01:49;;;;;;;16.30;15.30;;;16.90;99.90;;;;;;4933272;29;20249;-81
2021/07/07 04:04:17;;;;;;;16.10;15.00;;;16.80;99.90;;;;;;4917447;29;20205;-81
2021/07/07 04:06:44;;;;;;;15.70;14.70;;;16.80;99.90;;;;;;4918812;29;20191;-81
2021/07/07 04:09:13;;;;;;;16.60;15.60;;;16.80;99.90;;;;;;4917187;29;20218;-81
2021/07/07 04:11:40;;;;;;;16.63;15.53;;;16.80;99.90;;;;;;4930317;29;20249;-81
2021/07/07 04:14:07;;;;;;;17.23;16.10;;;16.80;99.90;;;;;;4943997;29;20196;-82
2021/07/07 04:16:34;;;;;;;16.13;15.17;;;16.80;99.90;;;;;;4934638;29;20205;-81
2021/07/07 04:19:00;;;;;;;16.40;15.33;;;16.80;99.90;;;;;;4950581;28;20218;-81
2021/07/07 04:21:29;;;;;;;16.87;15.67;;;16.80;99.90;;;;;;4936410;29;20194;-81
2021/07/07 04:23:55;;;;;;;17.10;16.00;;;16.70;99.90;;;;;;4937390;29;20217;-80
2021/07/07 04:26:22;;;;;;;16.70;15.70;;;16.80;99.90;;;;;;4936627;29;20226;-81
2021/07/07 04:28:49;;;;;;;16.70;15.70;;;16.90;99.90;;;;;;4936891;29;20205;-81
2021/07/07 04:31:16;;;;;;;16.30;15.30;;;16.90;99.90;;;;;;4948307;28;20202;-81
2021/07/07 04:33:43;;;;;;;16.60;15.50;;;16.90;99.90;;;;;;4935863;29;20202;-81
2021/07/07 04:36:09;;;;;;;16.17;15.17;;;16.90;99.90;;;;;;4951695;28;20257;-81
2021/07/07 04:38:38;;;;;;;16.50;15.40;;;16.90;99.90;;;;;;4951521;28;20253;-81
2021/07/07 04:41:04;;;;;;;16.40;15.40;;;16.90;99.90;;;;;;4936949;29;20208;-80
2021/07/07 04:43:31;;;;;;;16.23;15.23;;;16.90;99.90;;;;;;4951514;29;20212;-81
2021/07/07 04:45:58;;;;;;;17.20;16.00;;;16.90;99.90;;;;;;4935424;29;20227;-81
2021/07/07 04:48:25;;;;;;;16.37;15.37;;;16.90;99.90;;;;;;4946587;28;20203;-81
2021/07/07 04:50:52;;;;;;;16.47;15.57;;;16.90;99.90;;;;;;4933928;29;20208;-80
2021/07/07 04:53:19;;;;;;;16.73;15.60;;;16.90;99.90;;;;;;4931350;29;20198;-80
2021/07/07 04:55:47;;;;;;;17.40;16.20;;;16.90;99.90;;;;;;4938150;29;20218;-80
2021/07/07 04:58:14;;;;;;;17.53;16.43;;;16.90;99.90;;;;;;4936121;29;20685;-80
2021/07/07 05:00:41;;;;;;;17.17;16.17;;;17.00;99.90;;;;;;4923678;29;20298;-80
2021/07/07 05:03:08;;;;;;;16.03;15.13;;;17.00;99.90;;;;;;4930142;29;20218;-80
2021/07/07 05:05:34;;;;;;;16.10;15.20;;;17.10;99.90;;;;;;4924522;29;20210;-79
2021/07/07 05:08:01;;;;;;;17.07;16.07;;;17.10;99.90;;;;;;4935959;28;20200;-79
2021/07/07 05:10:30;;;;;;;16.80;15.80;;;17.00;99.90;;;;;;4931260;29;20196;-80
2021/07/07 05:12:59;;;;;;;15.80;14.90;;;17.00;99.90;;;;;;4934687;29;20627;-81
2021/07/07 05:15:26;;;;;;;16.23;15.23;;;16.90;99.90;;;;;;4930637;29;20227;-79
2021/07/07 05:17:53;;;;;;;16.30;15.20;;;16.90;99.90;;;;;;4934502;29;20243;-80
2021/07/07 05:20:20;;;;;;;16.17;15.20;;;16.90;99.90;;;;;;4930614;29;20558;-80
2021/07/07 05:22:47;;;;;;;16.23;15.23;;;16.90;99.90;;;;;;4936940;28;20206;-79
2021/07/07 05:25:16;;;;;;;15.30;14.50;;;16.90;99.90;;;;;;4935831;29;20229;-80
2021/07/07 05:27:43;;;;;;;15.73;14.73;;;16.90;99.90;;;;;;4934423;29;20219;-80
2021/07/07 05:30:14;;;;;;;15.07;14.17;;;16.80;99.90;;;;;;4935612;29;20198;-80
2021/07/07 05:32:41;;;;;;;15.40;14.37;;;16.70;99.90;;;;;;4935862;29;20190;-79
2021/07/07 05:35:10;;;;;;;15.50;14.50;;;16.70;99.90;;;;;;4934441;29;20228;-80
2021/07/07 05:37:37;;;;;;;15.90;15.00;;;16.70;99.90;;;;;;4934605;29;20200;-80
2021/07/07 05:40:05;;;;;;;14.90;14.00;;;16.70;99.90;;;;;;4935346;29;20190;-80
2021/07/07 05:42:32;;;;;;;15.03;14.13;;;16.80;99.90;;;;;;4935430;29;20247;-80
2021/07/07 05:44:59;;;;;;;15.50;14.50;;;16.80;99.90;;;;;;4934482;29;20234;-80
2021/07/07 05:47:27;;;;;;;15.80;14.90;;;16.80;99.90;;;;;;4933861;29;20199;-79
2021/07/07 05:49:56;;;;;;;16.00;15.10;;;16.70;99.90;;;;;;4946478;28;20205;-79
2021/07/07 05:52:24;;;;;;;15.37;14.33;;;16.70;99.90;;;;;;4935317;29;20200;-77
2021/07/07 05:54:50;;;;;;;14.83;14.03;;;16.80;99.90;;;;;;4932658;29;20244;-80
2021/07/07 05:57:18;;;;;;;14.60;13.80;;;16.70;99.90;;;;;;4936694;29;20206;-80
2021/07/07 05:59:44;;;;;;;15.17;14.27;;;16.70;99.90;;;;;;4932514;29;20206;-79
2021/07/07 06:02:11;;;;;;;15.00;14.10;;;16.70;99.90;;;;;;4931312;29;20194;-79
2021/07/07 06:04:41;;;;;;;14.90;13.90;;;16.60;99.90;;;;;;4932942;29;20246;-79
2021/07/07 06:07:08;;;;;;;14.50;13.60;;;16.60;99.90;;;;;;4938982;29;20200;-77
2021/07/07 06:09:35;;;;;;;15.00;14.00;;;16.50;99.90;;;;;;4929429;28;20195;-79
2021/07/07 06:12:02;;;;;;;14.80;14.00;;;16.60;99.90;;;;;;4935087;29;20206;-79
2021/07/07 06:14:29;;;;;;;14.80;13.90;;;16.60;99.90;;;;;;4930866;29;20219;-79
2021/07/07 06:16:56;;;;;;;14.83;13.90;;;16.70;99.90;;;;;;4933705;29;20205;-78
2021/07/07 06:19:23;;;;;;;14.83;14.00;;;16.70;99.90;;;;;;4935879;29;20656;-79
2021/07/07 06:21:51;;;;;;;14.33;13.53;;;16.90;99.90;;;;;;4938597;29;20297;-79
2021/07/07 06:24:21;;;;;;;14.50;13.70;;;16.90;99.90;;;;;;4940533;29;20653;-78
2021/07/07 06:26:49;;;;;;;9.43;8.83;;;17.00;99.90;;;;;;4938952;28;20574;-80
2021/07/07 06:29:17;;;;;;;9.20;8.60;;;17.00;99.90;;;;;;4934319;28;20549;-79
2021/07/07 06:31:45;;;;;;;9.30;8.70;;;17.00;99.90;;;;;;4935100;29;20227;-79
2021/07/07 06:34:12;;;;;;;8.90;8.40;;;17.00;99.90;;;;;;4932360;29;20197;-79
2021/07/07 06:36:40;;;;;;;8.70;8.20;;;17.10;99.90;;;;;;4932731;29;20199;-80
2021/07/07 06:39:08;;;;;;;14.40;13.60;;;17.10;99.90;;;;;;4930606;29;20199;-80
2021/07/07 06:41:35;;;;;;;13.43;12.73;;;17.10;99.90;;;;;;4932975;29;20622;-79
2021/07/07 06:44:02;;;;;;;14.00;13.20;;;17.10;99.90;;;;;;4921101;29;20572;-79
2021/07/07 06:46:30;;;;;;;12.40;11.50;;;17.20;99.90;;;;;;4925517;29;20232;-80
2021/07/07 06:48:57;;;;;;;8.50;8.00;;;17.30;99.90;;;;;;4940114;28;20677;-80
2021/07/07 06:51:25;;;;;;;8.33;7.73;;;17.40;99.90;;;;;;4933122;29;20288;-80
2021/07/07 06:53:52;;;;;;;8.07;7.57;;;17.50;99.90;;;;;;4933619;29;20240;-80
2021/07/07 06:56:20;;;;;;;7.77;7.27;;;17.60;99.90;;;;;;4934346;29;20581;-80
2021/07/07 06:58:47;;;;;;;9.43;8.83;;;17.80;99.90;;;;;;4922364;29;20231;-80
2021/07/07 07:01:17;;;;;;;12.03;11.30;;;17.90;99.90;;;;;;4930579;29;20245;-80
2021/07/07 07:03:44;;;;;;;12.83;12.13;;;18.00;99.90;;;;;;4934910;29;20571;-81
2021/07/07 07:06:12;;;;;;;10.60;10.00;;;18.10;99.90;;;;;;4932976;29;20268;-81
2021/07/07 07:08:39;;;;;;;9.90;9.30;;;18.20;99.90;;;;;;4934168;29;20682;-79
2021/07/07 07:11:07;;;;;;;11.03;10.37;;;18.00;99.90;;;;;;4934916;29;20194;-79
2021/07/07 07:13:36;;;;;;;9.20;8.60;;;18.00;99.90;;;;;;4933207;29;20308;-80
2021/07/07 07:16:03;;;;;;;9.30;8.80;;;17.80;99.90;;;;;;4929611;29;20566;-79
2021/07/07 07:18:30;;;;;;;11.80;11.10;;;17.70;99.90;;;;;;4934261;29;20197;-80
2021/07/07 07:20:57;;;;;;;9.33;8.73;;;17.70;99.90;;;;;;4928086;29;20229;-79
2021/07/07 07:23:25;;;;;;;11.93;11.23;;;17.60;99.90;;;;;;4932615;29;20206;-80
2021/07/07 07:25:52;;;;;;;11.80;11.10;;;17.60;99.90;;;;;;4934047;29;20637;-80
2021/07/07 07:28:19;;;;;;;13.50;12.70;;;17.60;99.90;;;;;;4936892;29;20201;-80
2021/07/07 07:30:47;;;;;;;10.70;10.00;;;17.70;99.90;;;;;;4934402;29;20206;-80
2021/07/07 07:33:15;;;;;;;7.60;7.10;;;17.70;99.90;;;;;;4934083;29;20689;-79
2021/07/07 07:35:43;;;;;;;8.70;8.00;;;17.70;99.90;;;;;;4917987;29;20560;-80
2021/07/07 07:38:12;;;;;;;8.30;7.80;;;17.70;99.90;;;;;;4949424;29;20205;-80
2021/07/07 07:40:41;;;;;;;12.43;11.73;;;17.60;99.90;;;;;;4936721;29;20197;-80
2021/07/07 07:43:11;;;;;;;4.37;3.97;;;17.60;99.90;;;;;;4924981;29;20230;-80
2021/07/07 07:45:39;;;;;;;8.33;7.53;;;17.60;99.90;;;;;;4929594;29;20273;-80
2021/07/07 07:48:08;;;;;;;3.77;3.57;;;17.70;99.90;;;;;;4934864;29;20208;-80
2021/07/07 07:50:35;;;;;;;4.10;3.80;;;17.70;99.90;;;;;;4934234;29;20202;-80
2021/07/07 07:53:03;;;;;;;4.37;3.57;;;17.80;99.90;;;;;;4932164;29;20671;-80
2021/07/07 07:55:30;;;;;;;4.13;3.73;;;17.80;99.90;;;;;;4925694;29;20222;-80
2021/07/07 07:57:57;;;;;;;4.07;3.77;;;17.80;99.90;;;;;;4936011;29;20290;-80
2021/07/07 08:00:26;;;;;;;5.57;5.20;;;17.90;99.90;;;;;;4933663;29;20816;-80
2021/07/07 08:02:54;;;;;;;5.50;5.10;;;17.90;99.90;;;;;;4935885;29;20659;-79
2021/07/07 08:05:23;;;;;;;9.57;8.97;;;17.90;99.90;;;;;;4932045;29;20582;-81
2021/07/07 08:07:51;;;;;;;8.70;8.10;;;17.90;99.90;;;;;;4937383;29;20211;-81
2021/07/07 08:10:19;;;;;;;9.30;8.70;;;17.90;99.90;;;;;;4941534;28;20282;-80
2021/07/07 08:12:55;;;;;;;10.10;9.47;;;18.00;99.90;;;;;;4933650;29;20270;-79
2021/07/07 08:15:23;;;;;;;14.27;13.47;;;17.90;99.90;;;;;;4932725;29;20218;-80
2021/07/07 08:17:51;;;;;;;12.83;12.03;;;17.80;99.90;;;;;;4934553;29;20194;-80
2021/07/07 08:20:21;;;;;;;13.90;13.03;;;17.80;99.90;;;;;;4926681;29;20198;-80
2021/07/07 08:22:50;;;;;;;12.23;11.37;;;17.70;99.90;;;;;;4937187;29;20195;-80
2021/07/07 08:25:18;;;;;;;13.70;12.90;;;17.70;99.90;;;;;;4937114;29;20241;-80
2021/07/07 08:27:48;;;;;;;13.43;12.60;;;17.70;99.90;;;;;;4936083;29;20218;-80
2021/07/07 08:30:16;;;;;;;12.57;11.87;;;17.80;99.90;;;;;;4930724;29;20660;-81
2021/07/07 08:32:43;;;;;;;10.30;9.70;;;17.80;99.90;;;;;;4936930;29;20197;-81
2021/07/07 08:35:11;;;;;;;14.17;13.37;;;17.80;99.90;;;;;;4935348;29;20226;-80
2021/07/07 08:37:39;;;;;;;12.40;11.70;;;17.90;99.90;;;;;;4946275;28;20215;-80
2021/07/07 08:40:10;;;;;;;9.07;8.50;;;17.80;99.90;;;;;;4936625;29;20560;-80
2021/07/07 08:42:41;;;;;;;8.77;8.27;;;17.90;99.90;;;;;;4935213;29;20606;-79
2021/07/07 08:45:11;;;;;;;4.17;3.87;;;18.00;99.90;;;;;;4937568;29;20294;-80
2021/07/07 08:47:40;;;;;;;4.20;3.80;;;17.90;99.90;;;;;;4948276;28;20221;-80
2021/07/07 08:50:12;;;;;;;3.90;3.50;;;17.90;99.90;;;;;;4936692;29;20192;-80
2021/07/07 08:52:39;;;;;;;7.93;7.43;;;18.00;99.90;;;;;;4936549;29;20207;-80
2021/07/07 08:55:10;;;;;;;3.77;3.57;;;18.10;99.90;;;;;;4937402;29;20225;-80
2021/07/07 08:57:43;;;;;;;4.00;3.70;;;18.40;99.90;;;;;;4934509;29;20203;-81
2021/07/07 09:00:13;;;;;;;9.83;9.13;;;18.70;99.90;;;;;;4931924;29;20652;-81
2021/07/07 09:02:54;;;;;;;8.80;8.30;;;18.70;99.90;;;;;;4928702;29;20629;-81
2021/07/07 09:05:21;;;;;;;7.60;7.10;;;18.70;99.90;;;;;;4936175;29;20270;-81
2021/07/07 09:07:48;;;;;;;8.20;7.70;;;18.80;99.90;;;;;;4934981;29;20215;-80
2021/07/07 09:10:19;;;;;;;8.80;8.17;;;18.80;99.90;;;;;;4934727;29;20207;-80
2021/07/07 09:12:46;;;;;;;8.40;7.83;;;18.90;99.90;;;;;;4950534;28;20211;-81
2021/07/07 09:15:17;;;;;;;7.93;7.43;;;19.00;99.90;;;;;;4936410;29;20220;-80
2021/07/07 09:17:49;;;;;;;7.80;7.30;;;19.10;99.90;;;;;;4934641;29;20198;-80
2021/07/07 09:20:23;;;;;;;6.17;5.77;;;19.00;99.90;;;;;;4936197;29;20191;-82
2021/07/07 09:22:51;;;;;;;7.30;6.90;;;19.20;99.90;;;;;;4930649;29;20551;-82
2021/07/07 09:25:27;;;;;;;9.80;9.30;;;19.30;99.90;;;;;;4932366;29;20221;-81
2021/07/07 09:27:54;;;;;;;9.53;8.93;;;19.50;99.90;;;;;;4950599;28;20220;-82
2021/07/07 09:30:22;;;;;;;9.17;8.67;;;19.50;99.90;;;;;;4934391;29;20736;-82
2021/07/07 09:32:51;;;;;;;9.60;9.10;;;19.50;99.90;;;;;;4932455;29;20221;-82
2021/07/07 09:35:20;;;;;;;9.57;9.03;;;19.50;99.90;;;;;;4929953;29;20243;-82
2021/07/07 09:37:50;;;;;;;9.00;8.50;;;19.60;99.90;;;;;;4934374;29;20196;-82
2021/07/07 09:40:19;;;;;;;9.70;9.10;;;19.70;99.90;;;;;;4932841;29;20197;-82
2021/07/07 09:42:47;;;;;;;10.00;9.47;;;19.60;99.90;;;;;;4933650;29;20202;-82
2021/07/07 09:45:20;;;;;;;10.23;9.63;;;19.70;99.90;;;;;;4934045;29;20232;-82
2021/07/07 09:47:47;;;;;;;11.00;10.40;;;19.80;99.90;;;;;;4934022;29;20214;-82
2021/07/07 09:50:16;;;;;;;10.10;9.50;;;19.90;99.90;;;;;;4935483;29;20622;-82
2021/07/07 09:52:43;;;;;;;11.57;10.87;;;20.00;99.90;;;;;;4934316;29;20213;-82
2021/07/07 09:55:11;;;;;;;10.60;9.90;;;20.10;99.90;;;;;;4950131;28;20226;-82
2021/07/07 09:57:48;;;;;;;4.60;4.30;;;20.10;99.90;;;;;;4932944;29;20195;-81
2021/07/07 10:00:19;;;;;;;5.43;5.10;;;20.10;99.90;;;;;;4936585;29;20260;-82
2021/07/07 10:02:49;;;;;;;6.33;5.93;;;20.20;99.90;;;;;;4930803;29;20232;-81
2021/07/07 10:05:17;;;;;;;5.47;5.13;;;20.50;99.90;;;;;;4932727;29;20693;-80
2021/07/07 10:07:45;;;;;;;5.27;4.97;;;20.60;99.90;;;;;;4937538;29;20222;-81
2021/07/07 10:10:13;;;;;;;3.83;3.63;;;20.60;99.90;;;;;;4934972;29;20201;-81
2021/07/07 10:12:44;;;;;;;4.10;3.80;;;20.60;99.90;;;;;;4934655;29;20206;-81
2021/07/07 10:15:13;;;;;;;6.90;6.50;;;20.70;99.90;;;;;;4927558;29;20233;-81
2021/07/07 10:17:41;;;;;;;9.57;9.07;;;20.90;99.90;;;;;;4920919;29;20199;-81
2021/07/07 10:20:10;;;;;;;5.40;5.00;;;21.10;99.90;;;;;;4932699;29;20202;-81
2021/07/07 10:22:38;;;;;;;3.20;3.00;;;21.30;99.90;;;;;;4933221;29;20218;-81
2021/07/07 10:25:07;;;;;;;3.00;2.80;;;21.50;99.90;;;;;;4934830;29;20218;-81
2021/07/07 10:27:36;;;;;;;2.80;2.60;;;21.60;99.90;;;;;;4935071;29;20225;-81
2021/07/07 10:30:05;;;;;;;3.20;3.00;;;21.50;99.90;;;;;;4933373;29;20203;-80
2021/07/07 10:32:33;;;;;;;3.80;3.60;;;21.30;99.90;;;;;;4935175;29;20215;-81
2021/07/07 10:35:07;;;;;;;6.90;6.50;;;21.10;99.90;;;;;;4933967;29;20222;-81
2021/07/07 10:37:35;;;;;;;8.30;7.80;;;21.10;99.90;;;;;;4933467;29;20191;-81
2021/07/07 10:40:28;;;;;;;9.00;8.40;;;21.10;99.90;;;;;;4933797;29;20201;-81
2021/07/07 10:43:11;;;;;;;9.40;8.90;;;21.10;99.90;;;;;;4933778;29;20648;-81
2021/07/07 10:45:44;;;;;;;10.57;9.97;;;21.10;99.90;;;;;;4941332;29;20219;-81
2021/07/07 10:48:30;;;;;;;11.83;11.13;;;21.20;99.90;;;;;;4936043;28;20713;-81
2021/07/07 10:51:00;;;;;;;11.10;10.50;;;21.10;99.90;;;;;;4938567;28;20228;-81
2021/07/07 10:53:36;;;;;;;11.40;10.80;;;21.20;99.90;;;;;;4930275;29;20211;-81
2021/07/07 10:56:04;;;;;;;11.63;10.93;;;21.20;99.90;;;;;;4928492;29;20687;-80
2021/07/07 10:58:36;;;;;;;11.17;10.57;;;21.10;99.90;;;;;;4934510;29;20194;-81
2021/07/07 11:01:34;;;;;;;10.90;10.30;;;20.90;99.90;;;;;;4936641;29;20206;-81
2021/07/07 11:04:03;;;;;;;11.67;10.97;;;20.80;99.90;;;;;;4930535;29;20203;-82
2021/07/07 11:06:36;;;;;;;11.20;10.60;;;20.70;99.90;;;;;;4933709;29;20219;-82
2021/07/07 11:09:13;;;;;;;11.10;10.50;;;20.70;99.90;;;;;;4928737;29;20679;-81
2021/07/07 11:11:41;;;;;;;11.30;10.70;;;20.70;99.90;;;;;;4939441;29;20562;-81
2021/07/07 11:14:14;;;;;;;11.33;10.63;;;20.60;99.90;;;;;;4950527;29;20198;-81
2021/07/07 11:16:53;;;;;;;10.83;10.23;;;20.50;99.90;;;;;;4937121;29;20574;-82
2021/07/07 11:19:51;;;;;;;11.00;10.40;;;20.50;99.90;;;;;;4948189;29;20208;-82
2021/07/07 11:22:19;;;;;;;10.77;10.17;;;20.40;99.90;;;;;;4878838;29;20544;-80
2021/07/07 11:24:49;;;;;;;11.00;10.40;;;20.20;99.90;;;;;;4923361;29;20280;-81
2021/07/07 11:27:16;;;;;;;11.00;10.40;;;20.30;99.90;;;;;;4937165;29;20214;-79
2021/07/07 11:29:44;;;;;;;11.57;10.80;;;20.30;99.90;;;;;;4939245;29;20195;-80
2021/07/07 11:32:27;;;;;;;11.13;10.53;;;20.40;99.90;;;;;;4945036;28;20210;-80
2021/07/07 11:34:56;;;;;;;11.00;10.37;;;20.40;99.90;;;;;;4939381;29;20695;-82
2021/07/07 11:37:25;;;;;;;11.10;10.50;;;20.50;99.90;;;;;;4939970;29;20249;-80
2021/07/07 11:40:11;;;;;;;11.10;10.50;;;20.60;99.90;;;;;;4938725;29;20207;-78
2021/07/07 11:43:01;;;;;;;11.43;10.83;;;20.50;99.90;;;;;;4939999;29;20669;-80
2021/07/07 11:45:31;;;;;;;11.60;10.90;;;20.30;99.90;;;;;;4950580;28;20219;-80
2021/07/07 11:48:04;;;;;;;11.47;10.87;;;20.40;99.90;;;;;;4932141;29;20244;-80
2021/07/07 11:50:31;;;;;;;11.43;10.73;;;20.40;99.90;;;;;;4940247;29;20203;-80
2021/07/07 11:53:02;;;;;;;11.17;10.57;;;20.30;99.90;;;;;;4928818;29;20198;-78
2021/07/07 11:55:54;;;;;;;11.53;10.83;;;20.30;99.90;;;;;;4937264;29;20230;-80
2021/07/07 11:58:24;;;;;;;11.00;10.30;;;20.40;99.90;;;;;;4927339;29;20281;-79
2021/07/07 12:00:53;;;;;;;9.50;9.00;;;20.30;99.90;;;;;;4939075;29;20201;-79
2021/07/07 12:03:22;;;;;;;10.30;9.70;;;20.30;99.90;;;;;;4939169;29;20197;-79
2021/07/07 12:05:57;;;;;;;10.47;9.87;;;20.30;99.90;;;;;;4921151;29;20313;-79
2021/07/07 12:08:26;;;;;;;11.40;10.70;;;20.40;99.90;;;;;;4926343;29;20202;-79
2021/07/07 12:11:03;;;;;;;11.10;10.40;;;20.40;99.90;;;;;;4938061;29;20196;-79
2021/07/07 12:13:31;;;;;;;11.90;10.63;;;20.30;99.90;;;;;;4938936;29;20717;-79
2021/07/07 12:16:25;;;;;;;11.23;10.63;;;20.30;99.90;;;;;;4941537;28;20231;-80
2021/07/07 12:18:55;;;;;;;12.20;11.30;;;20.40;99.90;;;;;;4935639;29;20201;-79
2021/07/07 12:21:37;;;;;;;11.80;11.10;;;20.30;99.90;;;;;;4930673;29;20193;-79
2021/07/07 12:24:06;;;;;;;11.70;11.07;;;20.40;99.90;;;;;;4928786;29;20205;-79
2021/07/07 12:26:35;;;;;;;11.70;11.00;;;20.50;99.90;;;;;;4936467;29;20252;-78
2021/07/07 12:29:03;;;;;;;11.70;11.00;;;20.70;99.90;;;;;;4946442;29;20214;-78
2021/07/07 12:31:32;;;;;;;11.67;10.90;;;20.90;99.90;;;;;;4936583;29;20206;-78
2021/07/07 12:34:01;;;;;;;11.40;10.80;;;21.30;99.90;;;;;;4932300;29;20254;-78
2021/07/07 12:36:30;;;;;;;11.33;10.63;;;21.50;99.90;;;;;;4943030;29;20916;-79
2021/07/07 12:38:59;;;;;;;11.43;10.73;;;21.70;99.90;;;;;;4927478;29;20671;-79
2021/07/07 12:41:34;;;;;;;11.97;11.30;;;21.90;99.90;;;;;;4936463;29;20195;-79
2021/07/07 12:44:12;;;;;;;11.63;10.93;;;22.00;99.90;;;;;;4929734;29;20206;-78
2021/07/07 12:46:53;;;;;;;11.50;10.80;;;22.00;99.90;;;;;;4933084;29;20203;-79
2021/07/07 12:49:36;;;;;;;11.50;10.77;;;21.90;99.90;;;;;;4942069;28;20751;-79
2021/07/07 12:52:17;;;;;;;10.70;10.10;;;21.80;99.90;;;;;;4921413;29;20198;-80
2021/07/07 12:54:44;;;;;;;11.30;10.60;;;21.90;99.90;;;;;;4937148;29;20270;-78
2021/07/07 12:57:11;;;;;;;11.00;10.40;;;22.00;99.90;;;;;;4937543;29;20222;-79
2021/07/07 12:59:52;;;;;;;10.90;10.30;;;22.10;99.90;;;;;;4936729;29;20606;-78
2021/07/07 13:02:51;;;;;;;10.90;10.30;;;22.20;99.90;;;;;;4931402;29;20258;-79
2021/07/07 13:05:31;;;;;;;11.00;10.30;;;22.50;99.90;;;;;;4938813;29;20230;-80
2021/07/07 13:07:58;;;;;;;5.57;5.27;;;22.70;99.90;;;;;;4941352;29;20244;-79
2021/07/07 13:10:29;;;;;;;9.17;8.47;;;22.90;99.90;;;;;;4942254;29;20209;-79